Townsend, Wisconsin
Current Conditions -  °F | °C
As of 5:15 AM on Friday 24 Oct 2014 (Local Time) from KAIG Reporting Station
Moderate Fog Moderate Fog  
Wind Chill: 40°   Ceiling: 300
Heat Index: 43°   Visibility: 0.5mi
Dew Point: 43°   Wind: 5mph
Humidity: 100%   Direction: 290°WNW
Pressure: 30.02"   Gusts: NA
Location:  45.33°N, 88.59°W
Report Text: KAIG 241015Z AUTO 29004KT 1/2SM FG OVC003 06/06 A3002 RMK AO2 T00600060
Loading
Personal Weather Stations






























Interactive Weather Map
Tropical Storm Tracking
New forecast layout! Learn more

10-Day Weather Forecast

Advertisements
Track Severe Weather on mobile